createdAt,value
2022-07-25T00:00:02.425Z,18.07
2022-07-25T00:05:03.564Z,18.72
2022-07-25T00:10:03.149Z,18.81
2022-07-25T00:15:02.994Z,18.71
2022-07-25T00:20:02.835Z,18.51
2022-07-25T00:25:02.693Z,18.29
2022-07-25T00:30:02.647Z,18.02
2022-07-25T00:35:02.529Z,17.52
2022-07-25T00:40:03.259Z,16.96
2022-07-25T00:45:02.974Z,16.73
2022-07-25T00:50:02.696Z,17.21
2022-07-25T00:55:04.587Z,17.61
2022-07-25T01:00:03.235Z,17.57
2022-07-25T01:05:02.949Z,16.97
2022-07-25T01:10:02.772Z,16.69
2022-07-25T01:15:03.154Z,16.52
2022-07-25T01:20:03.330Z,17.26
2022-07-25T01:25:02.995Z,17.48
2022-07-25T01:30:02.860Z,17.72
2022-07-25T01:35:02.652Z,17.83
2022-07-25T01:40:03.693Z,17.8
2022-07-25T01:45:03.309Z,17.76
2022-07-25T01:50:02.333Z,17.81
2022-07-25T01:55:06.668Z,17.77
2022-07-25T02:00:03.221Z,17.66
2022-07-25T02:05:03.275Z,17.7
2022-07-25T02:10:02.876Z,17.82
2022-07-25T02:15:02.783Z,17.84
2022-07-25T02:20:02.661Z,17.8
2022-07-25T02:25:03.455Z,17.81
2022-07-25T02:30:03.282Z,17.77
2022-07-25T02:35:02.970Z,17.74
2022-07-25T02:40:02.615Z,17.7
2022-07-25T02:45:03.351Z,17.72
2022-07-25T02:50:02.876Z,17.66
2022-07-25T02:55:10.015Z,17.76
2022-07-25T03:00:03.058Z,17.72
2022-07-25T03:05:02.557Z,17.42
2022-07-25T03:10:11.478Z,17.19
2022-07-25T03:15:02.648Z,17.35
2022-07-25T03:20:03.374Z,17.42
2022-07-25T03:25:03.028Z,17.42
2022-07-25T03:30:02.935Z,17.51
2022-07-25T03:35:02.870Z,17.56
2022-07-25T03:40:02.501Z,17.55
2022-07-25T03:45:03.352Z,17.55
2022-07-25T03:50:03.040Z,17.58
2022-07-25T03:55:03.738Z,17.61
2022-07-25T04:00:02.465Z,17.65
2022-07-25T04:05:03.300Z,17.67
2022-07-25T04:10:03.121Z,17.82
2022-07-25T04:15:03.005Z,17.97
2022-07-25T04:20:07.586Z,18.12
2022-07-25T04:25:03.442Z,18.24
2022-07-25T04:30:03.014Z,18.28
2022-07-25T04:35:02.675Z,18.38
2022-07-25T04:40:02.566Z,18.31
2022-07-25T04:45:02.628Z,18.36
2022-07-25T04:50:03.077Z,18.49
2022-07-25T04:55:03.978Z,19.06
2022-07-25T05:00:03.010Z,20.04
2022-07-25T05:05:03.474Z,21.19
2022-07-25T05:10:03.316Z,21.09
2022-07-25T05:15:03.167Z,21.92
2022-07-25T05:20:03.007Z,22.39
2022-07-25T05:25:02.957Z,22.9
2022-07-25T05:30:02.383Z,22.51
2022-07-25T05:35:03.312Z,22.59
2022-07-25T05:40:03.485Z,22.67
2022-07-25T05:45:03.097Z,23
2022-07-25T05:50:02.692Z,23.76
2022-07-25T05:55:03.714Z,23.9
2022-07-25T06:00:03.157Z,24.32
2022-07-25T06:05:02.998Z,24.76
2022-07-25T06:10:02.718Z,25.42
2022-07-25T06:15:03.938Z,24.91
2022-07-25T06:20:03.318Z,25.08
2022-07-25T06:25:03.059Z,25.45
2022-07-25T06:30:02.835Z,25.54
2022-07-25T06:35:02.880Z,26
2022-07-25T06:40:02.877Z,26.22
2022-07-25T06:45:02.674Z,27.09
2022-07-25T06:50:03.416Z,27.05
2022-07-25T06:55:04.028Z,27.96
2022-07-25T07:00:02.806Z,27.67
2022-07-25T07:05:02.420Z,27.59
2022-07-25T07:10:03.121Z,28.29
2022-07-25T07:15:02.828Z,28.18
2022-07-25T07:20:02.874Z,28.08
2022-07-25T07:25:03.182Z,29.27
2022-07-25T07:30:02.911Z,29.63
2022-07-25T07:35:02.609Z,29.22
2022-07-25T07:40:02.349Z,29.27
2022-07-25T07:45:03.275Z,29.5
2022-07-25T07:50:03.193Z,30.71
2022-07-25T07:55:04.367Z,31.06
2022-07-25T08:00:02.928Z,30.9
2022-07-25T08:05:02.771Z,31.32
2022-07-25T08:10:02.696Z,30.81
2022-07-25T08:15:02.628Z,31.76
2022-07-25T08:20:37.769Z,32.31
2022-07-25T08:25:02.835Z,32.29
2022-07-25T08:30:02.591Z,32.14
2022-07-25T08:35:02.393Z,32.25
2022-07-25T08:40:03.102Z,33.22
2022-07-25T08:45:02.810Z,32.94
2022-07-25T08:50:04.932Z,32.98
2022-07-25T08:55:03.667Z,34.2
2022-07-25T09:00:03.274Z,33.14
2022-07-25T09:05:03.279Z,32.32
2022-07-25T09:10:02.917Z,33.51
2022-07-25T09:15:03.367Z,32.36
2022-07-25T09:20:02.524Z,32.7
2022-07-25T09:25:03.390Z,33.54
2022-07-25T09:30:03.405Z,34.47
2022-07-25T09:35:03.037Z,34.37
2022-07-25T09:40:02.858Z,33.96
2022-07-25T09:45:02.679Z,33.86
2022-07-25T09:50:03.291Z,33.85
2022-07-25T09:55:04.080Z,34.5
2022-07-25T10:00:02.788Z,34.07
2022-07-25T10:05:02.318Z,34.03
2022-07-25T10:10:02.913Z,33.71
2022-07-25T10:15:02.771Z,33.95
2022-07-25T10:20:02.455Z,32.93
2022-07-25T10:25:03.182Z,34.49
2022-07-25T10:30:03.059Z,35.06
2022-07-25T10:35:02.551Z,35.89
2022-07-25T10:40:02.360Z,36.79
2022-07-25T10:45:03.291Z,36.08
2022-07-25T10:50:56.156Z,35.27
2022-07-25T10:55:03.293Z,35.06
2022-07-25T11:00:03.278Z,37.58
2022-07-25T11:05:02.807Z,37.23
2022-07-25T11:10:02.508Z,35.86
2022-07-25T11:15:03.352Z,36.01
2022-07-25T11:20:03.307Z,35.78
2022-07-25T11:25:03.149Z,35.93
2022-07-25T11:30:02.822Z,35.77
2022-07-25T11:35:02.566Z,35.51
2022-07-25T11:40:03.197Z,36.81
2022-07-25T11:45:02.918Z,37.19
2022-07-25T11:50:02.549Z,34.83
2022-07-25T11:55:04.579Z,34.03
2022-07-25T12:00:03.114Z,37.18
2022-07-25T12:05:02.814Z,35.47
2022-07-25T12:10:02.500Z,36.72
2022-07-25T12:15:03.250Z,35.66
2022-07-25T12:20:11.139Z,36.03
2022-07-25T12:25:03.067Z,37.5
2022-07-25T12:30:03.126Z,36.18
2022-07-25T12:35:03.387Z,36.74
2022-07-25T12:40:03.227Z,34.49
2022-07-25T12:45:03.470Z,37.65
2022-07-25T12:50:03.152Z,38.72
2022-07-25T12:55:03.478Z,38.51
2022-07-25T13:00:02.559Z,36.35
2022-07-25T13:05:03.250Z,37.4
2022-07-25T13:10:02.984Z,37.77
2022-07-25T13:15:02.637Z,38.19
2022-07-25T13:20:02.615Z,36.99
2022-07-25T13:25:03.389Z,36.76
2022-07-25T13:30:03.261Z,35.34
2022-07-25T13:35:02.816Z,35.42
2022-07-25T13:40:02.568Z,35.57
2022-07-25T13:45:03.383Z,35.88
2022-07-25T13:50:03.063Z,35.67
2022-07-25T13:55:03.783Z,35.77
2022-07-25T14:00:02.599Z,35.69
2022-07-25T14:05:04.706Z,36.22
2022-07-25T14:10:02.973Z,36.66
2022-07-25T14:15:02.583Z,38.03
2022-07-25T14:20:02.428Z,38.58
2022-07-25T14:25:03.366Z,37.86
2022-07-25T14:30:03.145Z,38.72
2022-07-25T14:35:02.823Z,38.09
2022-07-25T14:40:02.977Z,37.93
2022-07-25T14:45:03.338Z,37.43
2022-07-25T14:50:03.048Z,36.18
2022-07-25T14:55:04.382Z,35.39
2022-07-25T15:00:02.879Z,35.61
2022-07-25T15:05:02.679Z,35.03
2022-07-25T15:10:03.163Z,35.29
2022-07-25T15:15:02.929Z,35.6
2022-07-25T15:20:02.621Z,35.25
2022-07-25T15:26:01.563Z,36.63
2022-07-25T15:30:02.955Z,35.49
2022-07-25T15:35:02.628Z,35.6
2022-07-25T15:40:03.314Z,36.36
2022-07-25T15:45:34.189Z,36.63
2022-07-25T15:50:02.569Z,38.27
2022-07-25T15:55:05.448Z,37.89
2022-07-25T16:00:03.131Z,36.4
2022-07-25T16:05:02.733Z,36.03
2022-07-25T16:10:02.546Z,35.03
2022-07-25T16:15:03.288Z,34.55
2022-07-25T16:20:02.988Z,34.37
2022-07-25T16:25:02.716Z,34.17
2022-07-25T16:30:03.331Z,33.74
2022-07-25T16:35:02.989Z,33.5
2022-07-25T16:40:02.735Z,33.32
2022-07-25T16:45:03.472Z,32.96
2022-07-25T16:50:03.042Z,32.5
2022-07-25T16:55:04.036Z,31.26
2022-07-25T17:00:02.671Z,28.49
2022-07-25T17:05:03.730Z,24.05
2022-07-25T17:10:03.074Z,22.37
2022-07-25T17:15:02.867Z,22.11
2022-07-25T17:20:02.612Z,21.96
2022-07-25T17:25:02.355Z,21.95
2022-07-25T17:35:02.712Z,22.38
2022-07-25T17:40:02.425Z,22.49
2022-07-25T17:45:03.124Z,22.37
2022-07-25T17:50:02.861Z,22.46
2022-07-25T17:55:04.597Z,22.69
2022-07-25T18:00:03.352Z,23.04
2022-07-25T18:05:03.270Z,22.95
2022-07-25T18:10:02.723Z,22.77
2022-07-25T18:15:02.438Z,22.59
2022-07-25T18:20:03.199Z,22.79
2022-07-25T18:25:03.020Z,22.72
2022-07-25T18:30:02.768Z,22.94
2022-07-25T18:35:02.501Z,22.98
2022-07-25T18:40:03.192Z,22.87
2022-07-25T18:45:02.983Z,22.87
2022-07-25T18:50:02.640Z,22.79
2022-07-25T18:55:03.561Z,22.62
2022-07-25T19:00:03.995Z,22.49
2022-07-25T19:05:03.286Z,22.44
2022-07-25T19:10:02.788Z,22.33
2022-07-25T19:15:02.680Z,22.18
2022-07-25T19:20:03.358Z,22.02
2022-07-25T19:25:03.065Z,21.85
2022-07-25T19:30:02.898Z,21.78
2022-07-25T19:35:02.511Z,21.78
2022-07-25T19:40:03.220Z,21.72
2022-07-25T19:45:03.090Z,21.67
2022-07-25T19:50:02.625Z,21.63
2022-07-25T19:55:04.481Z,21.64
2022-07-25T20:00:03.150Z,21.71
2022-07-25T20:05:02.722Z,21.66
2022-07-25T20:10:03.148Z,21.65
2022-07-25T20:15:03.138Z,21.66
2022-07-25T20:20:02.908Z,21.62
2022-07-25T20:25:02.640Z,21.65
2022-07-25T20:30:03.229Z,21.44
2022-07-25T20:35:03.070Z,21.57
2022-07-25T20:40:02.821Z,21.74
2022-07-25T20:45:03.483Z,22.12
2022-07-25T20:50:03.189Z,22.04
2022-07-25T20:55:07.486Z,22.03
2022-07-25T21:00:03.181Z,21.96
2022-07-25T21:05:02.876Z,21.92
2022-07-25T21:10:02.588Z,21.83
2022-07-25T21:15:03.307Z,21.7
2022-07-25T21:20:03.081Z,21.62
2022-07-25T21:25:02.779Z,21.53
2022-07-25T21:30:02.704Z,21.45
2022-07-25T21:35:03.311Z,21.31
2022-07-25T21:40:03.186Z,21.23
2022-07-25T21:45:02.999Z,21.25
2022-07-25T21:50:03.611Z,21.26
2022-07-25T21:55:04.021Z,21.14
2022-07-25T22:00:02.644Z,21.14
2022-07-25T22:05:03.356Z,21.15
2022-07-25T22:10:02.998Z,21.23
2022-07-25T22:15:02.672Z,21.16
2022-07-25T22:20:02.612Z,21.21
2022-07-25T22:25:02.403Z,21.15
2022-07-25T22:30:03.107Z,21.09
2022-07-25T22:35:04.414Z,21.01
2022-07-25T22:40:03.239Z,20.94
2022-07-25T22:45:02.999Z,20.89
2022-07-25T22:50:02.515Z,20.84
2022-07-25T22:55:04.525Z,20.75
2022-07-25T23:00:02.993Z,20.69
2022-07-25T23:05:02.693Z,20.68
2022-07-25T23:10:02.488Z,20.58
2022-07-25T23:15:03.215Z,19.94
2022-07-25T23:20:03.171Z,19.46
2022-07-25T23:25:02.972Z,19.18
2022-07-25T23:30:02.695Z,19.08
2022-07-25T23:35:02.515Z,18.97
2022-07-25T23:40:03.134Z,18.95
2022-07-25T23:45:03.371Z,18.91
2022-07-25T23:50:03.080Z,18.87
2022-07-25T23:55:04.166Z,18.89
